Time;durP1;ratioP1;P1;durP2;ratioP2;P2;SDS_P1;SDS_P2;PMS_P1;PMS_P2;Temp;Humidity;BMP_temperature;BMP_pressure;BME280_temperature;BME280_humidity;BME280_pressure;Samples;Min_cycle;Max_cycle;Signal;HPM_P1;HPM_P2
2022/03/30 00:02:12;;;;;;;;;15.25;12.00;;;;;;;;5130508;27;8875;-73
2022/03/30 00:04:38;;;;;;;;;15.50;14.00;;;;;;;;5130170;27;8794;-72
2022/03/30 00:07:04;;;;;;;;;14.50;12.25;;;;;;;;5130307;27;8785;-72
2022/03/30 00:09:29;;;;;;;;;12.25;11.00;;;;;;;;5130075;27;11430;-72
2022/03/30 00:11:57;;;;;;;;;8.00;6.25;;;;;;;;5111408;27;8971;-71
2022/03/30 10:49:40;;;;;;;;;20.75;20.00;;;;;;;;6038178;22;4163456;-73
2022/03/30 10:52:41;;;;;;;;;15.25;14.25;;;;;;;;6220312;23;11546;-74
2022/03/30 10:55:12;;;;;;;;;18.00;16.00;;;;;;;;6102107;23;11576;-73
2022/03/30 10:57:57;;;;;;;;;20.75;16.00;;;;;;;;6200059;23;11486;-72
2022/03/30 11:00:23;;;;;;;;;17.50;15.00;;;;;;;;6219805;23;11585;-69
2022/03/30 11:02:49;;;;;;;;;19.50;18.25;;;;;;;;6219164;23;11459;-70
2022/03/30 11:05:16;;;;;;;;;20.25;16.75;;;;;;;;6219207;23;11549;-68
2022/03/30 11:07:42;;;;;;;;;18.75;17.00;;;;;;;;6192374;23;8794;-70
2022/03/30 11:10:25;;;;;;;;;22.25;20.50;;;;;;;;6219252;23;11548;-70
2022/03/30 11:12:57;;;;;;;;;21.75;19.25;;;;;;;;6218879;23;11483;-69
2022/03/30 11:15:22;;;;;;;;;24.75;21.00;;;;;;;;6219159;23;11549;-69
2022/03/30 11:17:48;;;;;;;;;22.25;18.75;;;;;;;;6218112;23;11581;-70
2022/03/30 11:20:14;;;;;;;;;16.25;16.25;;;;;;;;6191339;23;8778;-71
2022/03/30 11:22:47;;;;;;;;;22.25;20.00;;;;;;;;6218002;23;8870;-70
2022/03/30 11:25:13;;;;;;;;;19.75;19.25;;;;;;;;6217515;23;11479;-69
2022/03/30 11:27:39;;;;;;;;;23.75;23.25;;;;;;;;6217507;23;11476;-68
2022/03/30 11:30:09;;;;;;;;;22.00;22.00;;;;;;;;6217921;23;8788;-70
2022/03/30 11:32:34;;;;;;;;;20.50;18.00;;;;;;;;6217815;23;8798;-70
2022/03/30 11:35:01;;;;;;;;;23.75;21.50;;;;;;;;6217910;23;11458;-69
2022/03/30 11:37:29;;;;;;;;;27.75;22.00;;;;;;;;6217912;23;8786;-70
2022/03/30 11:40:11;;;;;;;;;16.00;16.00;;;;;;;;6217110;23;11464;-70
2022/03/30 11:42:42;;;;;;;;;22.25;19.00;;;;;;;;6219281;23;11454;-70
2022/03/30 11:45:19;;;;;;;;;19.00;18.50;;;;;;;;6192043;23;11473;-70
2022/03/30 11:47:44;;;;;;;;;19.75;17.00;;;;;;;;6209269;23;11667;-69
2022/03/30 11:50:14;;;;;;;;;26.00;21.75;;;;;;;;6182099;23;11514;-69
2022/03/30 11:52:39;;;;;;;;;24.50;21.50;;;;;;;;6182179;23;8788;-70
2022/03/30 11:55:06;;;;;;;;;25.00;23.25;;;;;;;;6182014;23;11541;-70
2022/03/30 11:57:36;;;;;;;;;21.00;21.00;;;;;;;;6182028;23;8780;-70
2022/03/30 12:00:03;;;;;;;;;23.50;20.25;;;;;;;;6181863;23;11527;-70
2022/03/30 12:02:29;;;;;;;;;24.25;20.75;;;;;;;;6182150;23;11539;-73
2022/03/30 12:04:55;;;;;;;;;27.50;22.00;;;;;;;;6182145;23;11592;-71
2022/03/30 12:07:21;;;;;;;;;28.00;25.25;;;;;;;;6182483;23;8748;-72
2022/03/30 12:09:49;;;;;;;;;26.50;24.00;;;;;;;;6180025;23;11516;-71
2022/03/30 12:12:44;;;;;;;;;24.75;22.75;;;;;;;;6181591;23;8764;-72
2022/03/30 12:15:11;;;;;;;;;26.25;23.25;;;;;;;;6090579;23;11533;-70
2022/03/30 12:17:36;;;;;;;;;24.00;21.00;;;;;;;;6066364;23;11668;-71
2022/03/30 12:20:08;;;;;;;;;28.75;23.75;;;;;;;;6091019;23;11540;-72
2022/03/30 12:22:34;;;;;;;;;30.25;21.75;;;;;;;;6091026;23;9542;-71
2022/03/30 12:24:59;;;;;;;;;31.67;28.67;;;;;;;;6108439;23;11512;-70
2022/03/30 12:27:25;;;;;;;;;32.75;28.50;;;;;;;;6182006;23;11542;-71
2022/03/30 12:29:55;;;;;;;;;22.00;22.00;;;;;;;;6181930;23;8752;-72
2022/03/30 12:32:23;;;;;;;;;20.75;20.75;;;;;;;;6180919;23;8764;-70
2022/03/30 12:34:48;;;;;;;;;27.50;22.00;;;;;;;;6180096;23;11565;-71
2022/03/30 12:37:19;;;;;;;;;25.50;24.25;;;;;;;;6181764;23;11547;-71
2022/03/30 12:39:45;;;;;;;;;22.75;21.75;;;;;;;;6181189;23;8862;-69
2022/03/30 12:42:26;;;;;;;;;30.75;25.50;;;;;;;;6179228;23;11550;-70
2022/03/30 12:44:56;;;;;;;;;24.75;24.25;;;;;;;;6179707;23;9508;-70
2022/03/30 12:47:25;;;;;;;;;26.00;24.00;;;;;;;;6179655;23;11597;-70
2022/03/30 12:49:53;;;;;;;;;25.25;21.00;;;;;;;;6181441;23;11537;-68
2022/03/30 12:52:20;;;;;;;;;24.25;21.25;;;;;;;;6181295;23;12405;-70
2022/03/30 12:54:46;;;;;;;;;34.50;29.75;;;;;;;;6181669;23;11530;-69
2022/03/30 12:57:12;;;;;;;;;28.50;22.75;;;;;;;;6181270;23;12376;-70
2022/03/30 12:59:41;;;;;;;;;25.00;24.00;;;;;;;;6179375;23;11643;-69
2022/03/30 13:02:25;;;;;;;;;27.50;25.00;;;;;;;;6181839;23;8752;-70
2022/03/30 13:04:57;;;;;;;;;26.75;26.00;;;;;;;;6181480;23;11533;-70
2022/03/30 13:07:27;;;;;;;;;27.75;23.00;;;;;;;;6181369;23;11514;-70
2022/03/30 13:10:06;;;;;;;;;22.25;19.25;;;;;;;;6181359;23;11513;-70
2022/03/30 13:12:40;;;;;;;;;23.75;20.75;;;;;;;;6181219;23;12342;-70
2022/03/30 13:15:07;;;;;;;;;23.75;23.75;;;;;;;;6181444;23;11492;-69
2022/03/30 13:17:33;;;;;;;;;27.25;24.25;;;;;;;;6181222;23;11628;-69
2022/03/30 13:19:59;;;;;;;;;29.00;27.00;;;;;;;;6181426;23;11490;-70
2022/03/30 13:22:24;;;;;;;;;28.00;25.75;;;;;;;;6179406;23;8776;-69
2022/03/30 13:24:52;;;;;;;;;28.75;24.25;;;;;;;;6180390;23;11716;-69
2022/03/30 13:27:18;;;;;;;;;25.00;21.00;;;;;;;;6180723;23;8783;-70
2022/03/30 13:29:43;;;;;;;;;23.75;21.25;;;;;;;;6180659;23;11498;-70
2022/03/30 13:32:09;;;;;;;;;24.75;19.25;;;;;;;;6180895;23;8874;-70
2022/03/30 13:34:35;;;;;;;;;26.75;24.25;;;;;;;;6180808;23;8838;-70
2022/03/30 13:37:00;;;;;;;;;26.00;21.25;;;;;;;;6180942;23;8784;-71
2022/03/30 13:39:25;;;;;;;;;21.25;18.25;;;;;;;;6181390;23;8760;-71
2022/03/30 13:41:52;;;;;;;;;20.50;17.00;;;;;;;;6180668;23;8859;-71
2022/03/30 13:44:18;;;;;;;;;24.75;24.00;;;;;;;;6180849;23;8796;-68
2022/03/30 13:46:46;;;;;;;;;24.00;20.75;;;;;;;;6181119;23;11685;-69
2022/03/30 13:49:12;;;;;;;;;18.25;18.00;;;;;;;;6179188;23;9463;-69
2022/03/30 13:51:37;;;;;;;;;14.50;12.25;;;;;;;;6181329;23;11590;-69
2022/03/30 13:54:03;;;;;;;;;20.25;16.50;;;;;;;;6180874;23;8853;-69
2022/03/30 13:56:29;;;;;;;;;16.75;16.50;;;;;;;;6178653;23;8784;-70
2022/03/30 13:58:55;;;;;;;;;17.00;16.25;;;;;;;;6180532;23;12365;-69
2022/03/30 14:01:22;;;;;;;;;14.00;13.75;;;;;;;;6180795;23;8752;-70
2022/03/30 14:03:47;;;;;;;;;16.25;12.00;;;;;;;;6180965;23;11494;-70
2022/03/30 14:06:13;;;;;;;;;15.25;14.50;;;;;;;;6180218;23;11630;-70
2022/03/30 14:08:38;;;;;;;;;18.75;17.75;;;;;;;;6180768;23;9534;-70
2022/03/30 14:11:03;;;;;;;;;21.25;17.25;;;;;;;;6180592;23;8776;-70
2022/03/30 14:13:29;;;;;;;;;19.00;16.00;;;;;;;;6180534;23;8790;-71
2022/03/30 14:15:55;;;;;;;;;24.75;19.25;;;;;;;;6179300;23;8764;-70
2022/03/30 14:18:24;;;;;;;;;26.25;16.00;;;;;;;;6179637;23;8985;-70
2022/03/30 14:20:53;;;;;;;;;16.75;13.25;;;;;;;;6181078;23;8796;-70
2022/03/30 14:23:18;;;;;;;;;15.00;11.00;;;;;;;;6180880;23;12289;-69
2022/03/30 14:25:44;;;;;;;;;14.75;14.75;;;;;;;;6180171;23;11514;-70
2022/03/30 14:28:10;;;;;;;;;22.25;17.25;;;;;;;;6180783;23;8884;-69
2022/03/30 14:30:37;;;;;;;;;18.25;17.00;;;;;;;;6179978;23;11603;-70
2022/03/30 14:33:03;;;;;;;;;24.00;20.50;;;;;;;;6178840;23;8806;-71
2022/03/30 14:35:33;;;;;;;;;19.25;16.75;;;;;;;;6180397;23;11521;-70
2022/03/30 14:37:59;;;;;;;;;18.00;12.50;;;;;;;;6180230;23;8796;-71
2022/03/30 14:40:25;;;;;;;;;20.25;14.50;;;;;;;;6180317;23;11606;-69
2022/03/30 14:42:51;;;;;;;;;22.50;17.00;;;;;;;;6179699;23;11596;-72
